Time;durP1;ratioP1;P1;durP2;ratioP2;P2;SDS_P1;SDS_P2;PMS_P1;PMS_P2;Temp;Humidity;BMP_temperature;BMP_pressure;BME280_temperature;BME280_humidity;BME280_pressure;Samples;Min_cycle;Max_cycle;Signal;HPM_P1;HPM_P2
2021/11/03 00:00:14;;;;;;;16.60;11.88;;;8.70;86.80;;;;;;5092946;28;20016;-81
2021/11/03 00:02:45;;;;;;;14.88;12.07;;;8.70;86.70;;;;;;5093813;28;20155;-80
2021/11/03 00:05:13;;;;;;;14.27;11.23;;;8.70;86.80;;;;;;5095308;28;20031;-81
2021/11/03 00:07:40;;;;;;;14.98;11.68;;;8.70;86.80;;;;;;5094611;28;20036;-81
2021/11/03 00:10:07;;;;;;;14.13;11.07;;;8.60;86.80;;;;;;5094329;28;20032;-81
2021/11/03 00:12:34;;;;;;;15.40;11.63;;;8.60;87.00;;;;;;5094871;28;20036;-80
2021/11/03 00:14:59;;;;;;;15.40;11.20;;;8.50;87.10;;;;;;5098961;28;20506;-81
2021/11/03 00:17:25;;;;;;;14.48;10.75;;;8.50;87.20;;;;;;5106387;28;20092;-80
2021/11/03 00:19:51;;;;;;;13.77;10.68;;;8.50;87.20;;;;;;5089126;28;20031;-81
2021/11/03 00:22:17;;;;;;;15.50;11.43;;;8.60;87.20;;;;;;5104781;28;20025;-80
2021/11/03 00:24:44;;;;;;;16.98;11.52;;;8.60;87.10;;;;;;5103375;28;20024;-81
2021/11/03 00:27:10;;;;;;;14.07;10.50;;;8.60;87.10;;;;;;5104391;28;20017;-80
2021/11/03 00:29:36;;;;;;;14.77;11.75;;;8.60;87.10;;;;;;5104097;28;20016;-81
2021/11/03 00:32:04;;;;;;;14.63;11.48;;;8.60;87.20;;;;;;5103693;28;20181;-81
2021/11/03 00:34:30;;;;;;;15.75;11.27;;;8.70;87.20;;;;;;5083776;28;20025;-81
2021/11/03 00:36:56;;;;;;;23.27;12.25;;;8.70;87.20;;;;;;5089789;28;20522;-81
2021/11/03 00:39:22;;;;;;;15.95;11.98;;;8.80;87.20;;;;;;5089651;28;20373;-81
2021/11/03 00:41:54;;;;;;;25.05;12.10;;;8.70;87.10;;;;;;5075147;28;20028;-80
2021/11/03 00:44:21;;;;;;;17.75;11.75;;;8.80;87.10;;;;;;5089459;28;20562;-80
2021/11/03 00:46:47;;;;;;;16.58;11.30;;;8.80;87.10;;;;;;5089341;28;20023;-81
2021/11/03 00:49:13;;;;;;;19.90;11.93;;;8.80;87.10;;;;;;5089255;28;20380;-80
2021/11/03 00:51:39;;;;;;;22.20;11.77;;;8.80;87.10;;;;;;5089368;28;20123;-81
2021/11/03 00:54:05;;;;;;;30.40;12.30;;;8.90;87.10;;;;;;5089153;28;20124;-81
2021/11/03 00:59:52;;;;;;;29.55;12.25;;;8.80;87.00;;;;;;5072458;28;20055;-80
2021/11/03 01:02:18;;;;;;;30.55;12.10;;;8.80;87.10;;;;;;5074035;28;20489;-81
2021/11/03 01:04:44;;;;;;;26.42;11.85;;;8.80;87.10;;;;;;5089450;28;20012;-80
2021/11/03 01:07:11;;;;;;;21.48;11.45;;;8.80;87.10;;;;;;5075162;28;20399;-80
2021/11/03 01:09:37;;;;;;;36.33;11.32;;;8.80;87.20;;;;;;5089174;28;20115;-80
2021/11/03 01:12:05;;;;;;;18.75;11.90;;;8.80;87.20;;;;;;5088711;28;20098;-81
2021/11/03 01:14:31;;;;;;;19.25;11.80;;;8.70;87.20;;;;;;5088874;28;20484;-80
2021/11/03 01:16:57;;;;;;;23.88;12.25;;;8.80;87.30;;;;;;5089023;28;20024;-80
2021/11/03 01:19:23;;;;;;;24.15;11.95;;;8.70;87.20;;;;;;5089253;28;20392;-80
2021/11/03 01:21:49;;;;;;;21.75;11.65;;;8.70;87.20;;;;;;5088994;28;20040;-80
2021/11/03 01:24:14;;;;;;;17.48;11.23;;;8.70;87.30;;;;;;5088914;28;20078;-81
2021/11/03 01:26:40;;;;;;;21.85;11.60;;;8.70;87.30;;;;;;5089224;28;20116;-80
2021/11/03 01:29:06;;;;;;;33.33;11.73;;;8.60;87.30;;;;;;5089064;28;20028;-81
2021/11/03 01:31:32;;;;;;;19.63;11.63;;;8.60;87.40;;;;;;5089300;28;20480;-81
2021/11/03 01:33:59;;;;;;;23.38;11.55;;;8.60;87.40;;;;;;5089175;28;20025;-80
2021/11/03 01:36:24;;;;;;;22.02;11.23;;;8.60;87.40;;;;;;5089194;28;20032;-81
2021/11/03 01:38:51;;;;;;;66.90;12.23;;;8.50;87.40;;;;;;5089254;28;20021;-80
2021/11/03 01:41:17;;;;;;;19.65;11.25;;;8.50;87.40;;;;;;5089076;28;20492;-81
2021/11/03 01:43:47;;;;;;;21.10;12.00;;;8.50;87.40;;;;;;5089223;28;20025;-81
2021/11/03 01:46:19;;;;;;;16.17;11.90;;;8.40;87.40;;;;;;5089112;28;20028;-80
2021/11/03 01:48:44;;;;;;;17.75;11.45;;;8.30;87.50;;;;;;5089078;28;20119;-80
2021/11/03 01:51:18;;;;;;;25.60;11.23;;;8.30;87.60;;;;;;5089274;28;20539;-80
2021/11/03 01:53:44;;;;;;;19.02;11.75;;;8.30;87.70;;;;;;5089156;28;20492;-81
2021/11/03 01:56:10;;;;;;;13.98;11.40;;;8.20;87.60;;;;;;5088776;28;20114;-81
2021/11/03 01:58:47;;;;;;;22.08;11.57;;;8.20;87.70;;;;;;5089325;28;20032;-81
2021/11/03 02:01:14;;;;;;;17.42;10.85;;;8.10;87.70;;;;;;5088969;28;20045;-81
2021/11/03 02:03:41;;;;;;;22.38;12.25;;;8.10;87.70;;;;;;5088737;28;20066;-80
2021/11/03 02:06:14;;;;;;;32.95;12.18;;;8.00;87.70;;;;;;5088876;28;20481;-80
2021/11/03 02:08:42;;;;;;;33.13;11.80;;;8.00;87.80;;;;;;5088778;28;20515;-81
2021/11/03 02:11:08;;;;;;;27.38;11.73;;;8.00;87.80;;;;;;5088580;28;20483;-80
2021/11/03 02:13:37;;;;;;;54.28;12.80;;;8.00;87.80;;;;;;5072894;28;20029;-80
2021/11/03 02:16:03;;;;;;;17.15;11.15;;;8.00;87.80;;;;;;5088553;28;20029;-81
2021/11/03 02:18:31;;;;;;;48.88;12.15;;;8.00;87.80;;;;;;5072959;28;20515;-81
2021/11/03 02:20:57;;;;;;;27.92;11.80;;;8.00;88.30;;;;;;5088505;28;20074;-81
2021/11/03 02:23:35;;;;;;;25.00;11.43;;;8.00;87.70;;;;;;5088654;28;20119;-81
2021/11/03 02:26:19;;;;;;;32.80;11.32;;;8.00;87.70;;;;;;5092212;28;20123;-80
2021/11/03 02:28:47;;;;;;;39.05;10.35;;;8.00;87.70;;;;;;5092314;28;20082;-80
2021/11/03 02:31:34;;;;;;;55.83;10.80;;;8.00;87.70;;;;;;5092322;28;20070;-81
2021/11/03 02:34:01;;;;;;;51.47;10.38;;;8.00;87.60;;;;;;5092622;28;20120;-80
2021/11/03 02:36:27;;;;;;;39.60;10.38;;;7.90;87.50;;;;;;5092429;28;20036;-81
2021/11/03 02:38:53;;;;;;;24.35;9.88;;;7.90;87.60;;;;;;5092235;28;20119;-81
2021/11/03 02:41:25;;;;;;;37.05;9.48;;;7.90;87.60;;;;;;5092335;28;20039;-80
2021/11/03 02:44:13;;;;;;;30.90;9.70;;;7.90;87.60;;;;;;5092444;28;20492;-80
2021/11/03 02:46:39;;;;;;;56.25;10.30;;;7.90;87.60;;;;;;5092178;28;20032;-81
2021/11/03 02:49:04;;;;;;;26.27;9.18;;;7.80;87.50;;;;;;5092343;28;20021;-82
2021/11/03 02:51:40;;;;;;;47.60;10.32;;;7.80;87.50;;;;;;5092390;28;20481;-81
2021/11/03 02:54:21;;;;;;;26.45;9.88;;;7.90;87.50;;;;;;5091955;28;20028;-81
2021/11/03 02:56:53;;;;;;;37.50;9.52;;;7.80;87.40;;;;;;5091889;28;20060;-80
2021/11/03 02:59:22;;;;;;;34.10;8.88;;;7.90;87.50;;;;;;5091449;28;20036;-81
2021/11/03 03:01:51;;;;;;;41.20;9.23;;;7.80;87.40;;;;;;5091323;28;20032;-81
2021/11/03 03:04:25;;;;;;;22.85;9.30;;;7.80;87.40;;;;;;5091384;28;20017;-80
2021/11/03 03:06:51;;;;;;;22.77;9.50;;;7.80;87.40;;;;;;5091381;28;20063;-81
2021/11/03 03:09:19;;;;;;;57.78;10.35;;;7.80;87.40;;;;;;5091302;28;20028;-80
2021/11/03 03:11:48;;;;;;;36.30;9.55;;;7.80;87.30;;;;;;5091122;28;20115;-81
2021/11/03 03:14:16;;;;;;;48.58;9.90;;;7.80;87.30;;;;;;5091152;28;20033;-81
2021/11/03 03:16:43;;;;;;;24.38;9.38;;;7.90;87.40;;;;;;5091160;28;20035;-81
2021/11/03 03:19:09;;;;;;;34.08;9.63;;;7.80;87.30;;;;;;5091152;28;20039;-81
2021/11/03 03:24:57;;;;;;;47.25;9.43;;;7.80;87.20;;;;;;5075614;28;20526;-80
2021/11/03 03:27:23;;;;;;;60.90;10.05;;;7.80;87.20;;;;;;5090928;28;20052;-81
2021/11/03 03:29:49;;;;;;;31.08;10.10;;;7.80;87.20;;;;;;5090899;28;20365;-81
2021/11/03 03:32:16;;;;;;;37.45;9.80;;;7.80;87.80;;;;;;5090726;28;20043;-81
2021/11/03 03:34:42;;;;;;;44.50;9.38;;;7.80;87.20;;;;;;5076482;28;20033;-81
2021/11/03 03:37:09;;;;;;;27.85;8.88;;;7.80;87.20;;;;;;5090047;28;20044;-80
2021/11/03 03:39:35;;;;;;;35.25;9.18;;;7.80;87.20;;;;;;5090670;28;20024;-79
2021/11/03 03:42:11;;;;;;;35.83;9.75;;;7.80;87.20;;;;;;5090421;28;20021;-78
2021/11/03 03:44:38;;;;;;;15.68;8.43;;;7.80;87.30;;;;;;5090363;28;20033;-78
2021/11/03 03:47:04;;;;;;;23.10;9.25;;;7.80;87.20;;;;;;5090384;28;20024;-78
2021/11/03 03:49:31;;;;;;;32.85;9.85;;;7.80;87.20;;;;;;5090294;28;20028;-78
2021/11/03 03:51:56;;;;;;;34.20;9.00;;;7.80;87.20;;;;;;5090269;28;20044;-78
2021/11/03 03:54:23;;;;;;;26.63;9.60;;;7.80;87.20;;;;;;5090293;28;20484;-78
2021/11/03 03:56:49;;;;;;;48.42;10.77;;;7.80;87.20;;;;;;5090171;28;20056;-78
2021/11/03 03:59:15;;;;;;;26.67;9.98;;;7.80;87.20;;;;;;5089956;28;20028;-78
2021/11/03 04:01:41;;;;;;;28.70;10.23;;;7.80;87.20;;;;;;5089961;28;20028;-78
2021/11/03 04:04:08;;;;;;;30.83;9.50;;;7.80;87.20;;;;;;5090062;28;20033;-78
2021/11/03 04:06:34;;;;;;;27.75;9.82;;;7.80;87.20;;;;;;5089941;28;20068;-78
2021/11/03 04:08:59;;;;;;;52.95;10.00;;;7.80;87.20;;;;;;5089996;28;20025;-78
2021/11/03 04:11:25;;;;;;;43.35;9.73;;;7.80;87.10;;;;;;5089850;28;20107;-78
2021/11/03 04:13:50;;;;;;;38.60;9.13;;;7.80;87.00;;;;;;5089982;28;20031;-78
2021/11/03 04:16:17;;;;;;;24.90;8.73;;;7.70;87.00;;;;;;5089731;28;20035;-78
2021/11/03 04:18:43;;;;;;;26.42;8.63;;;7.70;87.00;;;;;;5074173;28;20035;-78
2021/11/03 04:21:08;;;;;;;42.58;8.32;;;7.70;87.00;;;;;;5089620;28;20389;-77
2021/11/03 04:23:34;;;;;;;18.70;8.70;;;7.70;87.00;;;;;;5089594;28;20446;-78
2021/11/03 04:26:00;;;;;;;40.08;9.52;;;7.70;87.00;;;;;;5089642;28;20025;-78
2021/11/03 04:28:27;;;;;;;25.02;9.13;;;7.60;87.00;;;;;;5090030;28;20066;-78
2021/11/03 04:30:52;;;;;;;33.08;9.18;;;7.60;87.00;;;;;;5089487;28;20040;-77
2021/11/03 04:33:20;;;;;;;37.38;9.13;;;7.60;87.60;;;;;;5089600;28;20025;-78
2021/11/03 04:35:47;;;;;;;20.08;8.27;;;7.50;87.00;;;;;;5089435;28;20020;-78
2021/11/03 04:38:13;;;;;;;20.77;8.90;;;7.50;87.00;;;;;;5089446;28;20028;-78
2021/11/03 04:40:38;;;;;;;22.23;8.93;;;7.60;87.10;;;;;;5089375;28;20029;-77
2021/11/03 04:43:04;;;;;;;19.33;8.88;;;7.50;87.10;;;;;;5089310;28;20067;-79
2021/11/03 04:45:30;;;;;;;16.65;8.80;;;7.50;87.10;;;;;;5089460;28;20024;-80
2021/11/03 04:47:55;;;;;;;28.00;8.90;;;7.60;87.10;;;;;;5088307;28;20020;-80
2021/11/03 04:50:28;;;;;;;27.27;8.48;;;7.60;87.70;;;;;;5089395;28;20029;-80
2021/11/03 04:52:55;;;;;;;40.75;8.77;;;7.60;87.10;;;;;;5089222;28;20021;-80
2021/11/03 04:55:21;;;;;;;22.50;9.05;;;7.60;87.00;;;;;;5089123;28;20025;-80
2021/11/03 04:57:52;;;;;;;17.23;8.55;;;7.60;87.60;;;;;;5089261;28;20016;-79
2021/11/03 05:00:22;;;;;;;20.17;8.90;;;7.50;86.90;;;;;;5089175;28;20033;-80
2021/11/03 05:02:48;;;;;;;19.98;8.60;;;7.60;87.10;;;;;;5073346;28;20044;-79
2021/11/03 05:05:14;;;;;;;15.80;9.35;;;7.50;87.00;;;;;;5089079;28;20032;-79
2021/11/03 05:07:41;;;;;;;19.90;8.18;;;7.60;87.10;;;;;;5089110;28;20403;-80
2021/11/03 05:10:07;;;;;;;20.55;8.75;;;7.50;87.00;;;;;;5088920;28;20361;-79
2021/11/03 05:12:32;;;;;;;18.95;8.88;;;7.50;87.00;;;;;;5089203;28;20528;-79
2021/11/03 05:14:58;;;;;;;26.55;8.82;;;7.50;87.10;;;;;;5073244;28;20108;-80
2021/11/03 05:17:24;;;;;;;30.83;8.80;;;7.50;87.10;;;;;;5088797;28;20033;-79
2021/11/03 05:19:49;;;;;;;23.40;8.50;;;7.50;87.10;;;;;;5088788;28;20028;-79
2021/11/03 05:22:16;;;;;;;13.77;7.60;;;7.50;87.10;;;;;;5088813;28;20170;-79
2021/11/03 05:24:42;;;;;;;38.28;8.60;;;7.40;87.00;;;;;;5088734;28;20416;-79
2021/11/03 05:27:13;;;;;;;21.70;8.32;;;7.40;87.00;;;;;;5073223;28;20021;-79
2021/11/03 05:29:39;;;;;;;20.67;7.97;;;7.40;87.00;;;;;;5088691;28;20106;-79
2021/11/03 05:32:05;;;;;;;18.08;7.97;;;7.30;87.00;;;;;;5088955;28;20060;-80
2021/11/03 05:34:31;;;;;;;13.80;8.55;;;7.30;87.10;;;;;;5088815;28;20392;-79
2021/11/03 05:36:56;;;;;;;20.15;8.23;;;7.30;87.10;;;;;;5072936;28;20089;-79
2021/11/03 05:39:22;;;;;;;10.93;7.93;;;7.30;87.10;;;;;;5088630;28;20077;-81
2021/11/03 05:41:48;;;;;;;33.22;8.68;;;7.40;87.10;;;;;;5088762;28;20020;-79
2021/11/03 05:44:18;;;;;;;22.35;8.48;;;7.30;87.60;;;;;;5088569;28;20561;-79
2021/11/03 05:46:46;;;;;;;70.00;9.73;;;7.30;87.00;;;;;;5088531;28;20112;-80
2021/11/03 05:49:14;;;;;;;22.30;8.50;;;7.30;86.90;;;;;;5088452;28;20032;-79
2021/11/03 05:51:43;;;;;;;16.05;8.73;;;7.30;86.90;;;;;;5088599;28;20388;-79
2021/11/03 05:54:10;;;;;;;27.23;9.02;;;7.30;86.90;;;;;;5088904;28;20060;-80
2021/11/03 05:56:36;;;;;;;28.08;9.00;;;7.30;86.90;;;;;;5072965;28;20488;-79
2021/11/03 05:59:03;;;;;;;40.40;8.77;;;7.40;87.00;;;;;;5092517;28;20044;-79
2021/11/03 06:01:29;;;;;;;24.17;8.20;;;7.40;87.00;;;;;;5092519;28;20064;-79
2021/11/03 06:03:55;;;;;;;19.90;8.73;;;7.40;86.90;;;;;;5092478;28;20511;-79
2021/11/03 06:06:22;;;;;;;22.55;8.45;;;7.40;87.00;;;;;;5092322;28;20024;-79
2021/11/03 06:08:49;;;;;;;35.53;9.10;;;7.30;86.90;;;;;;5092294;28;20502;-79
2021/11/03 06:11:15;;;;;;;31.33;8.55;;;7.40;87.00;;;;;;5092290;28;20032;-79
2021/11/03 06:13:42;;;;;;;16.13;8.25;;;7.40;87.00;;;;;;5092299;28;20119;-79
2021/11/03 06:16:08;;;;;;;23.42;8.88;;;7.40;87.00;;;;;;5092133;28;20035;-79
2021/11/03 06:18:34;;;;;;;10.70;7.95;;;7.40;86.90;;;;;;5092018;28;20040;-79
2021/11/03 06:21:00;;;;;;;10.18;7.55;;;7.40;86.90;;;;;;5091884;28;20032;-79
2021/11/03 06:23:26;;;;;;;27.80;7.70;;;7.40;86.90;;;;;;5091860;28;20066;-79
2021/11/03 06:25:51;;;;;;;16.10;7.80;;;7.40;86.90;;;;;;5092134;28;20025;-79
2021/11/03 06:28:18;;;;;;;16.75;8.32;;;7.40;86.80;;;;;;5091876;28;20558;-77
2021/11/03 06:30:43;;;;;;;24.98;8.52;;;7.40;86.80;;;;;;5092024;28;20044;-78
2021/11/03 06:33:09;;;;;;;21.10;8.23;;;7.30;86.80;;;;;;5091803;28;20484;-77
2021/11/03 06:35:36;;;;;;;18.45;8.75;;;7.30;86.90;;;;;;5091762;28;20028;-78
2021/11/03 06:38:04;;;;;;;23.50;8.75;;;7.20;86.90;;;;;;5091794;28;20037;-78
2021/11/03 06:40:30;;;;;;;25.67;8.65;;;7.30;86.90;;;;;;5091734;28;20020;-78
2021/11/03 06:42:56;;;;;;;22.02;9.15;;;7.30;86.90;;;;;;5091590;28;20093;-78
2021/11/03 06:45:24;;;;;;;25.35;8.85;;;7.30;86.90;;;;;;5091533;28;20071;-78
2021/11/03 06:47:50;;;;;;;32.45;8.75;;;7.20;86.90;;;;;;5091605;28;20012;-78
2021/11/03 06:50:21;;;;;;;18.55;9.30;;;7.30;86.90;;;;;;5091613;28;20445;-78
2021/11/03 06:52:48;;;;;;;25.98;9.65;;;7.30;86.90;;;;;;5091471;28;20124;-78
2021/11/03 06:55:14;;;;;;;22.88;10.43;;;7.30;86.90;;;;;;5091491;28;20040;-78
2021/11/03 06:57:40;;;;;;;16.23;9.35;;;7.30;86.90;;;;;;5075657;28;20029;-78
2021/11/03 07:00:10;;;;;;;29.98;10.38;;;7.30;86.80;;;;;;5091158;28;20098;-78
2021/11/03 07:02:36;;;;;;;18.70;10.40;;;7.30;86.80;;;;;;5091257;28;20094;-78
2021/11/03 07:05:02;;;;;;;27.45;10.75;;;7.30;86.80;;;;;;5091298;28;20024;-78
2021/11/03 07:07:28;;;;;;;25.75;10.07;;;7.30;86.80;;;;;;5091134;28;20048;-78
2021/11/03 07:09:54;;;;;;;23.27;10.27;;;7.30;86.70;;;;;;5090727;28;20443;-79
2021/11/03 07:12:19;;;;;;;14.55;10.07;;;7.40;86.70;;;;;;5090554;28;20511;-78
2021/11/03 07:14:45;;;;;;;23.58;9.95;;;7.40;86.70;;;;;;5090910;28;20124;-80
2021/11/03 07:17:12;;;;;;;18.77;10.35;;;7.40;86.70;;;;;;5091003;28;20036;-78
2021/11/03 07:19:39;;;;;;;21.50;10.80;;;7.40;86.60;;;;;;5090902;28;20393;-78
2021/11/03 07:22:06;;;;;;;24.75;8.90;;;7.40;86.60;;;;;;5075315;28;20085;-78
2021/11/03 07:24:32;;;;;;;27.83;10.63;;;7.40;86.60;;;;;;5090868;28;20037;-77
2021/11/03 07:26:58;;;;;;;16.95;10.20;;;7.40;86.50;;;;;;5091122;28;20016;-78
2021/11/03 07:29:23;;;;;;;15.32;9.82;;;7.40;86.50;;;;;;5090890;28;20503;-78
2021/11/03 07:31:49;;;;;;;16.20;10.00;;;7.40;86.60;;;;;;5090745;28;20123;-78
2021/11/03 07:34:15;;;;;;;13.32;9.13;;;7.50;86.60;;;;;;5090569;28;20025;-79
2021/11/03 07:36:40;;;;;;;24.05;10.23;;;7.50;86.50;;;;;;5090698;28;20029;-78
2021/11/03 07:39:06;;;;;;;23.30;10.02;;;7.50;86.50;;;;;;5090491;28;20492;-78
2021/11/03 07:41:33;;;;;;;15.45;10.00;;;7.50;86.50;;;;;;5090502;28;20021;-78
2021/11/03 07:43:59;;;;;;;14.57;9.57;;;7.50;86.50;;;;;;5090599;28;20569;-78
2021/11/03 07:46:25;;;;;;;17.75;10.07;;;7.50;86.50;;;;;;5090365;28;20028;-78
2021/11/03 07:48:50;;;;;;;16.63;9.98;;;7.50;86.50;;;;;;5090392;28;20027;-78
2021/11/03 07:51:17;;;;;;;18.63;10.63;;;7.50;86.50;;;;;;5090366;28;20127;-78
2021/11/03 07:53:45;;;;;;;25.35;10.43;;;7.60;86.50;;;;;;5074774;28;20036;-78
2021/11/03 07:56:15;;;;;;;15.23;10.20;;;7.60;86.40;;;;;;5074690;28;20024;-78
2021/11/03 07:58:41;;;;;;;13.85;9.65;;;7.60;86.40;;;;;;5090266;28;20460;-78
2021/11/03 08:01:09;;;;;;;15.48;10.20;;;7.70;86.40;;;;;;5089913;28;20036;-78
2021/11/03 08:03:35;;;;;;;15.98;10.45;;;7.70;86.40;;;;;;5074561;28;20025;-78
2021/11/03 08:06:00;;;;;;;16.17;11.13;;;7.70;86.30;;;;;;5089935;28;20073;-77
2021/11/03 08:08:31;;;;;;;14.52;10.10;;;7.80;86.30;;;;;;5074394;28;20119;-77
2021/11/03 08:10:57;;;;;;;15.60;10.52;;;7.80;86.20;;;;;;5089961;28;20498;-78
2021/11/03 08:13:26;;;;;;;15.85;10.23;;;7.90;86.20;;;;;;5089957;28;20039;-78
2021/11/03 08:15:56;;;;;;;16.58;11.20;;;7.90;86.20;;;;;;5089807;28;20082;-78
2021/11/03 08:18:29;;;;;;;14.90;10.85;;;7.90;86.20;;;;;;5074227;28;20366;-79
2021/11/03 08:20:55;;;;;;;18.38;10.65;;;7.80;86.20;;;;;;5089771;28;20032;-78
2021/11/03 08:23:22;;;;;;;13.95;10.15;;;7.80;86.10;;;;;;5089599;28;20040;-78
2021/11/03 08:25:48;;;;;;;15.90;10.43;;;7.80;86.20;;;;;;5089653;28;20044;-78
2021/11/03 08:28:13;;;;;;;13.32;9.77;;;7.80;86.20;;;;;;5089564;28;20024;-78
2021/11/03 08:30:45;;;;;;;12.85;9.75;;;7.80;86.30;;;;;;5089473;28;20374;-77
2021/11/03 08:33:15;;;;;;;12.57;9.82;;;7.90;86.40;;;;;;5089535;28;20498;-78
2021/11/03 08:35:44;;;;;;;12.63;10.20;;;7.90;86.30;;;;;;5089526;28;20035;-78
2021/11/03 08:38:12;;;;;;;13.57;9.90;;;8.00;86.30;;;;;;5090117;28;20026;-78
2021/11/03 08:40:38;;;;;;;13.20;9.93;;;8.00;86.30;;;;;;5089423;28;20021;-78
2021/11/03 08:43:07;;;;;;;14.57;9.98;;;8.10;86.30;;;;;;5089206;28;20031;-79
2021/11/03 08:45:33;;;;;;;12.57;9.50;;;8.20;86.20;;;;;;5089174;28;20484;-78
2021/11/03 08:47:59;;;;;;;14.02;9.40;;;8.20;86.10;;;;;;5089778;28;20027;-76
2021/11/03 08:50:31;;;;;;;12.43;9.38;;;8.30;86.20;;;;;;5091170;28;20170;-81
2021/11/03 08:52:58;;;;;;;12.43;9.90;;;8.30;86.20;;;;;;5090282;28;20021;-80
2021/11/03 08:55:25;;;;;;;12.63;10.02;;;8.30;86.10;;;;;;5089489;28;20047;-80
2021/11/03 08:57:52;;;;;;;12.32;9.40;;;8.40;86.20;;;;;;5089178;28;20028;-79
2021/11/03 09:00:23;;;;;;;12.80;10.10;;;8.40;86.20;;;;;;5088825;28;20044;-78
2021/11/03 09:02:55;;;;;;;13.23;10.43;;;8.40;86.20;;;;;;5089021;28;20025;-78
2021/11/03 09:05:22;;;;;;;12.98;10.45;;;8.50;86.20;;;;;;5088992;28;20025;-79
2021/11/03 09:07:48;;;;;;;13.35;10.48;;;8.50;86.20;;;;;;5073726;28;20380;-78
2021/11/03 09:13:36;;;;;;;13.68;10.45;;;8.60;86.30;;;;;;5073609;28;20463;-79
2021/11/03 09:16:03;;;;;;;14.90;10.32;;;8.60;86.20;;;;;;5088812;28;20020;-80
2021/11/03 09:18:29;;;;;;;12.57;10.40;;;8.60;86.20;;;;;;5089236;28;20400;-81
2021/11/03 09:20:56;;;;;;;13.75;10.43;;;8.70;86.20;;;;;;5089243;28;20063;-77
2021/11/03 09:23:22;;;;;;;13.23;10.88;;;8.70;86.20;;;;;;5089203;28;20058;-79
2021/11/03 09:25:51;;;;;;;15.20;12.05;;;8.70;86.20;;;;;;5089265;28;20425;-77
2021/11/03 09:28:17;;;;;;;14.27;11.38;;;8.80;86.20;;;;;;5073797;28;20021;-77
2021/11/03 09:30:43;;;;;;;16.15;12.13;;;8.90;86.20;;;;;;5088661;28;20373;-77
2021/11/03 09:33:10;;;;;;;14.57;11.98;;;8.90;86.20;;;;;;5091083;28;20024;-78
2021/11/03 09:35:43;;;;;;;16.88;12.20;;;8.90;86.00;;;;;;5088748;28;20027;-77
2021/11/03 09:38:12;;;;;;;13.90;11.90;;;9.00;86.00;;;;;;5088892;28;20041;-79
2021/11/03 09:40:57;;;;;;;14.93;12.07;;;9.00;85.90;;;;;;5088634;28;20021;-80
2021/11/03 09:43:34;;;;;;;15.88;12.02;;;9.10;85.90;;;;;;5089199;28;20020;-80
2021/11/03 09:46:15;;;;;;;15.20;12.00;;;9.10;85.90;;;;;;5107982;28;20058;-80
2021/11/03 09:48:41;;;;;;;16.92;11.35;;;9.10;85.80;;;;;;5089946;28;20369;-80
2021/11/03 09:51:16;;;;;;;16.17;11.93;;;9.20;85.90;;;;;;5089036;28;20025;-78
2021/11/03 09:53:59;;;;;;;18.33;13.32;;;9.20;86.40;;;;;;5088877;28;20063;-79
2021/11/03 09:56:55;;;;;;;16.00;12.45;;;9.20;85.80;;;;;;5088645;28;20035;-78
2021/11/03 09:59:52;;;;;;;15.50;11.70;;;9.30;85.90;;;;;;5073999;28;20119;-78
2021/11/03 10:02:40;;;;;;;16.73;12.45;;;9.30;85.90;;;;;;5074389;28;20102;-77
2021/11/03 10:05:44;;;;;;;15.60;11.55;;;9.30;85.90;;;;;;5088532;28;20392;-80
2021/11/03 10:08:22;;;;;;;13.80;10.90;;;9.30;85.90;;;;;;5069876;28;20032;-78
2021/11/03 10:11:04;;;;;;;13.48;10.77;;;9.30;85.90;;;;;;5088812;28;20123;-79
2021/11/03 10:13:36;;;;;;;14.05;10.52;;;9.40;86.00;;;;;;5072976;28;20032;-78
2021/11/03 10:16:14;;;;;;;16.45;11.57;;;9.40;85.90;;;;;;5088408;28;20112;-79
2021/11/03 10:18:51;;;;;;;14.60;11.68;;;9.40;85.90;;;;;;5088352;28;20029;-79
2021/11/03 10:21:35;;;;;;;14.82;10.63;;;9.50;85.90;;;;;;5088364;28;20028;-79
2021/11/03 10:24:13;;;;;;;15.10;10.98;;;9.60;86.00;;;;;;5088372;28;20425;-78
2021/11/03 10:26:56;;;;;;;13.88;10.43;;;9.60;85.80;;;;;;5088213;28;20056;-79
2021/11/03 10:29:39;;;;;;;13.52;10.10;;;9.70;85.70;;;;;;5088116;28;20036;-79
2021/11/03 10:32:08;;;;;;;14.25;10.25;;;9.80;85.60;;;;;;5088170;28;20025;-76
2021/11/03 10:34:33;;;;;;;15.07;11.00;;;9.80;85.40;;;;;;5087985;28;20028;-75
2021/11/03 10:37:25;;;;;;;12.30;10.15;;;9.90;85.30;;;;;;5073582;28;20108;-75
2021/11/03 10:40:00;;;;;;;13.48;10.60;;;10.00;85.40;;;;;;5089667;28;20074;-76
2021/11/03 10:42:41;;;;;;;14.20;11.00;;;10.00;85.30;;;;;;5087850;28;20035;-76
2021/11/03 10:45:26;;;;;;;14.25;10.73;;;10.10;85.20;;;;;;5087885;28;20029;-77
2021/11/03 10:48:06;;;;;;;12.68;9.90;;;10.20;85.10;;;;;;5092945;28;20020;-78
2021/11/03 10:50:38;;;;;;;14.85;10.13;;;10.30;85.10;;;;;;5110945;28;20468;-78
2021/11/03 10:53:26;;;;;;;11.95;9.50;;;10.30;84.90;;;;;;5094228;28;20036;-78
2021/11/03 10:56:04;;;;;;;14.43;9.88;;;10.40;84.80;;;;;;5095954;28;20035;-78
2021/11/03 10:58:33;;;;;;;12.40;9.93;;;10.50;84.70;;;;;;5113083;28;20028;-78
2021/11/03 11:01:00;;;;;;;14.15;10.18;;;10.50;84.70;;;;;;5079835;28;20040;-78
2021/11/03 11:03:31;;;;;;;16.80;10.00;;;10.60;84.60;;;;;;5095464;28;20480;-77
2021/11/03 11:06:08;;;;;;;14.95;10.20;;;10.70;84.60;;;;;;5095589;28;20017;-78
2021/11/03 11:08:48;;;;;;;15.60;10.35;;;10.80;84.50;;;;;;5099084;28;20480;-78
2021/11/03 11:11:15;;;;;;;12.85;9.80;;;10.80;84.30;;;;;;5097532;28;20115;-77
2021/11/03 11:13:56;;;;;;;12.82;10.10;;;10.80;84.20;;;;;;5094842;28;20452;-78
2021/11/03 11:16:59;;;;;;;14.90;10.95;;;10.90;84.30;;;;;;5077222;28;20526;-78
2021/11/03 11:19:34;;;;;;;12.55;10.07;;;10.90;84.10;;;;;;5093484;28;20115;-78
2021/11/03 11:22:06;;;;;;;14.18;10.05;;;10.90;84.10;;;;;;5092213;28;20036;-77
2021/11/03 11:24:57;;;;;;;12.90;9.95;;;11.00;84.20;;;;;;5093503;28;20107;-78
2021/11/03 11:27:30;;;;;;;14.45;10.25;;;11.00;84.10;;;;;;5092440;28;20024;-77
2021/11/03 11:29:55;;;;;;;13.02;10.63;;;11.00;84.10;;;;;;5092130;28;20016;-78
2021/11/03 11:32:31;;;;;;;13.88;10.90;;;11.10;84.00;;;;;;5091029;28;20029;-78
2021/11/03 11:35:19;;;;;;;14.88;10.40;;;11.10;84.00;;;;;;5091053;28;20441;-78
2021/11/03 11:38:04;;;;;;;14.00;10.68;;;11.00;84.00;;;;;;5092195;28;20031;-78
2021/11/03 11:41:11;;;;;;;14.45;10.63;;;11.10;84.10;;;;;;5092954;28;20016;-78
2021/11/03 11:43:39;;;;;;;12.52;10.45;;;11.10;84.10;;;;;;5040009;28;20588;-78
2021/11/03 11:46:25;;;;;;;15.13;11.43;;;11.20;84.00;;;;;;5052360;28;20110;-78
2021/11/03 11:48:59;;;;;;;13.35;10.43;;;11.10;83.90;;;;;;5070134;28;20063;-79
2021/11/03 11:51:30;;;;;;;19.00;11.25;;;11.10;84.00;;;;;;5091121;28;20387;-78
2021/11/03 11:53:56;;;;;;;14.88;11.68;;;11.20;84.00;;;;;;5092749;28;20184;-76
2021/11/03 11:56:28;;;;;;;14.95;11.65;;;11.20;84.00;;;;;;5090762;28;20028;-78
2021/11/03 11:59:20;;;;;;;14.85;11.32;;;11.20;83.90;;;;;;5092000;28;20020;-79
2021/11/03 12:01:49;;;;;;;16.02;12.00;;;11.20;83.90;;;;;;5067091;28;20045;-78
2021/11/03 12:04:33;;;;;;;15.15;11.98;;;11.20;84.00;;;;;;5090752;28;20377;-78
2021/11/03 12:06:58;;;;;;;16.80;12.00;;;11.20;83.90;;;;;;5076743;28;20020;-77
2021/11/03 12:16:36;;;;;;;16.67;11.48;;;11.30;83.80;;;;;;5054555;28;20124;-78
2021/11/03 12:19:24;;;;;;;17.00;11.57;;;11.40;83.90;;;;;;5089928;28;20040;-79
2021/11/03 12:22:01;;;;;;;13.63;11.05;;;11.40;83.90;;;;;;5090009;28;20029;-78
2021/11/03 12:24:42;;;;;;;14.18;11.20;;;11.50;83.90;;;;;;5089770;28;20017;-78
2021/11/03 12:27:23;;;;;;;14.20;11.13;;;11.50;83.90;;;;;;5089543;28;20059;-78
2021/11/03 12:30:07;;;;;;;14.77;11.48;;;11.60;83.70;;;;;;5090057;28;20025;-78
2021/11/03 12:32:40;;;;;;;13.27;10.95;;;11.60;83.70;;;;;;5074136;28;20028;-78
2021/11/03 12:35:18;;;;;;;13.23;10.97;;;11.70;83.70;;;;;;5089610;28;20044;-78
2021/11/03 12:38:06;;;;;;;12.82;10.45;;;11.70;83.70;;;;;;5089600;28;20021;-78
2021/11/03 12:40:40;;;;;;;12.93;9.85;;;11.60;83.60;;;;;;5089630;28;20476;-78
2021/11/03 12:43:21;;;;;;;15.15;12.05;;;11.60;83.60;;;;;;5089527;28;20149;-78
2021/11/03 12:46:04;;;;;;;15.30;11.30;;;11.50;83.60;;;;;;5089267;28;20091;-78
2021/11/03 12:48:37;;;;;;;16.38;12.18;;;11.50;83.80;;;;;;5089341;28;20039;-78
2021/11/03 12:51:20;;;;;;;15.32;12.48;;;11.50;84.60;;;;;;5092182;28;20541;-79
2021/11/03 12:53:49;;;;;;;15.27;12.17;;;11.50;84.00;;;;;;5073582;28;20536;-79
2021/11/03 12:56:20;;;;;;;16.00;12.18;;;11.50;83.90;;;;;;5074656;28;20384;-79
2021/11/03 12:58:46;;;;;;;15.80;12.45;;;11.50;83.90;;;;;;5090067;28;20498;-77
2021/11/03 13:01:25;;;;;;;17.80;12.27;;;11.50;83.80;;;;;;5091403;28;20048;-79
2021/11/03 13:03:55;;;;;;;15.82;12.63;;;11.50;83.80;;;;;;5089451;28;20032;-78
2021/11/03 13:06:47;;;;;;;15.02;12.23;;;11.50;83.80;;;;;;5089024;28;20017;-76
2021/11/03 13:09:37;;;;;;;15.77;12.52;;;11.50;83.80;;;;;;5073687;28;20039;-78